sensor_id;sensor_type;location;lat;lon;timestamp;temperature;humidity
15364;DHT22;7781;49.690;6.472;2023-05-23T00:00:12;14.00;99.90
15364;DHT22;7781;49.690;6.472;2023-05-23T00:02:44;14.00;99.90
15364;DHT22;7781;49.690;6.472;2023-05-23T00:05:13;14.10;99.90
15364;DHT22;7781;49.690;6.472;2023-05-23T00:07:44;14.10;99.90
15364;DHT22;7781;49.690;6.472;2023-05-23T00:10:12;14.10;99.90
15364;DHT22;7781;49.690;6.472;2023-05-23T00:12:41;14.10;99.90
15364;DHT22;7781;49.690;6.472;2023-05-23T00:15:10;14.20;99.90
15364;DHT22;7781;49.690;6.472;2023-05-23T00:17:39;14.10;99.90
15364;DHT22;7781;49.690;6.472;2023-05-23T00:20:11;14.10;99.90
15364;DHT22;7781;49.690;6.472;2023-05-23T00:22:40;14.00;99.90
15364;DHT22;7781;49.690;6.472;2023-05-23T00:25:09;14.00;99.90
15364;DHT22;7781;49.690;6.472;2023-05-23T00:27:39;14.00;99.90
15364;DHT22;7781;49.690;6.472;2023-05-23T00:30:07;13.80;99.90
15364;DHT22;7781;49.690;6.472;2023-05-23T00:32:36;13.80;99.90
15364;DHT22;7781;49.690;6.472;2023-05-23T00:35:06;13.80;99.90
15364;DHT22;7781;49.690;6.472;2023-05-23T00:37:36;13.80;99.90
15364;DHT22;7781;49.690;6.472;2023-05-23T00:40:06;13.70;99.90
15364;DHT22;7781;49.690;6.472;2023-05-23T00:42:34;13.70;99.90
15364;DHT22;7781;49.690;6.472;2023-05-23T00:45:05;13.70;99.90
15364;DHT22;7781;49.690;6.472;2023-05-23T00:47:34;13.60;99.90
15364;DHT22;7781;49.690;6.472;2023-05-23T00:50:06;13.60;99.90
15364;DHT22;7781;49.690;6.472;2023-05-23T00:52:38;13.50;99.90
15364;DHT22;7781;49.690;6.472;2023-05-23T00:55:08;13.40;99.90
15364;DHT22;7781;49.690;6.472;2023-05-23T00:57:37;13.40;99.90
15364;DHT22;7781;49.690;6.472;2023-05-23T01:00:08;13.40;99.90
15364;DHT22;7781;49.690;6.472;2023-05-23T01:02:43;13.50;99.90
15364;DHT22;7781;49.690;6.472;2023-05-23T01:05:13;13.40;99.90
15364;DHT22;7781;49.690;6.472;2023-05-23T01:07:45;13.40;99.90
15364;DHT22;7781;49.690;6.472;2023-05-23T01:10:15;13.40;99.90
15364;DHT22;7781;49.690;6.472;2023-05-23T01:12:54;13.30;99.90
15364;DHT22;7781;49.690;6.472;2023-05-23T01:15:28;13.30;99.90
15364;DHT22;7781;49.690;6.472;2023-05-23T01:18:00;13.20;99.90
15364;DHT22;7781;49.690;6.472;2023-05-23T01:20:34;13.10;99.90
15364;DHT22;7781;49.690;6.472;2023-05-23T01:26:30;13.00;99.90
15364;DHT22;7781;49.690;6.472;2023-05-23T01:29:06;12.90;99.90
15364;DHT22;7781;49.690;6.472;2023-05-23T01:31:41;12.80;99.90
15364;DHT22;7781;49.690;6.472;2023-05-23T01:34:11;12.90;99.90
15364;DHT22;7781;49.690;6.472;2023-05-23T01:36:42;12.90;99.90
15364;DHT22;7781;49.690;6.472;2023-05-23T01:39:11;12.80;99.90
15364;DHT22;7781;49.690;6.472;2023-05-23T01:41:40;12.80;99.90
15364;DHT22;7781;49.690;6.472;2023-05-23T01:44:10;12.70;99.90
15364;DHT22;7781;49.690;6.472;2023-05-23T01:46:38;12.70;99.90
15364;DHT22;7781;49.690;6.472;2023-05-23T01:49:12;12.70;99.90
15364;DHT22;7781;49.690;6.472;2023-05-23T01:51:42;12.60;99.90
15364;DHT22;7781;49.690;6.472;2023-05-23T01:54:11;12.60;99.90
15364;DHT22;7781;49.690;6.472;2023-05-23T01:56:41;12.60;99.90
15364;DHT22;7781;49.690;6.472;2023-05-23T01:59:12;12.50;99.90
15364;DHT22;7781;49.690;6.472;2023-05-23T02:01:41;12.50;99.90
15364;DHT22;7781;49.690;6.472;2023-05-23T02:04:13;12.50;99.90
15364;DHT22;7781;49.690;6.472;2023-05-23T02:06:42;12.40;99.90
15364;DHT22;7781;49.690;6.472;2023-05-23T02:09:12;12.40;99.90
15364;DHT22;7781;49.690;6.472;2023-05-23T02:11:41;12.30;99.90
15364;DHT22;7781;49.690;6.472;2023-05-23T02:14:12;12.30;99.90
15364;DHT22;7781;49.690;6.472;2023-05-23T02:16:41;12.30;99.90
15364;DHT22;7781;49.690;6.472;2023-05-23T02:19:12;12.30;99.90
15364;DHT22;7781;49.690;6.472;2023-05-23T02:21:41;12.30;99.90
15364;DHT22;7781;49.690;6.472;2023-05-23T02:24:11;12.30;99.90
15364;DHT22;7781;49.690;6.472;2023-05-23T02:26:45;12.40;99.90
15364;DHT22;7781;49.690;6.472;2023-05-23T02:29:15;12.30;99.90
15364;DHT22;7781;49.690;6.472;2023-05-23T02:31:45;12.30;99.90
15364;DHT22;7781;49.690;6.472;2023-05-23T02:34:14;12.40;99.90
15364;DHT22;7781;49.690;6.472;2023-05-23T02:36:43;12.40;99.90
15364;DHT22;7781;49.690;6.472;2023-05-23T02:39:12;12.30;99.90
15364;DHT22;7781;49.690;6.472;2023-05-23T02:41:41;12.30;99.90
15364;DHT22;7781;49.690;6.472;2023-05-23T02:44:09;12.30;99.90
15364;DHT22;7781;49.690;6.472;2023-05-23T02:46:39;12.20;99.90
15364;DHT22;7781;49.690;6.472;2023-05-23T02:49:08;12.20;99.90
15364;DHT22;7781;49.690;6.472;2023-05-23T02:51:37;12.10;99.90
15364;DHT22;7781;49.690;6.472;2023-05-23T02:54:05;12.10;99.90
15364;DHT22;7781;49.690;6.472;2023-05-23T02:56:36;12.10;99.90
15364;DHT22;7781;49.690;6.472;2023-05-23T02:59:05;12.10;99.90
15364;DHT22;7781;49.690;6.472;2023-05-23T03:01:33;12.00;99.90
15364;DHT22;7781;49.690;6.472;2023-05-23T03:04:04;12.00;99.90
15364;DHT22;7781;49.690;6.472;2023-05-23T03:06:32;12.00;99.90
15364;DHT22;7781;49.690;6.472;2023-05-23T03:09:03;12.00;99.90
15364;DHT22;7781;49.690;6.472;2023-05-23T03:11:31;12.10;99.90
15364;DHT22;7781;49.690;6.472;2023-05-23T03:13:59;12.10;99.90
15364;DHT22;7781;49.690;6.472;2023-05-23T03:16:28;12.10;99.90
15364;DHT22;7781;49.690;6.472;2023-05-23T03:18:57;12.10;99.90
15364;DHT22;7781;49.690;6.472;2023-05-23T03:21:28;12.10;99.90
15364;DHT22;7781;49.690;6.472;2023-05-23T03:23:57;12.00;99.90
15364;DHT22;7781;49.690;6.472;2023-05-23T03:26:26;12.10;99.90
15364;DHT22;7781;49.690;6.472;2023-05-23T03:28:55;12.10;99.90
15364;DHT22;7781;49.690;6.472;2023-05-23T03:31:24;12.30;99.90
15364;DHT22;7781;49.690;6.472;2023-05-23T03:33:52;12.20;99.90
15364;DHT22;7781;49.690;6.472;2023-05-23T03:36:21;12.20;99.90
15364;DHT22;7781;49.690;6.472;2023-05-23T03:38:53;12.20;99.90
15364;DHT22;7781;49.690;6.472;2023-05-23T03:41:22;12.10;99.90
15364;DHT22;7781;49.690;6.472;2023-05-23T03:43:54;12.10;99.90
15364;DHT22;7781;49.690;6.472;2023-05-23T03:46:23;12.00;99.90
15364;DHT22;7781;49.690;6.472;2023-05-23T03:48:52;12.00;99.90
15364;DHT22;7781;49.690;6.472;2023-05-23T03:51:21;12.00;99.90
15364;DHT22;7781;49.690;6.472;2023-05-23T03:53:50;12.00;99.90
15364;DHT22;7781;49.690;6.472;2023-05-23T03:56:22;12.20;99.90
15364;DHT22;7781;49.690;6.472;2023-05-23T03:58:50;12.30;99.90
15364;DHT22;7781;49.690;6.472;2023-05-23T04:01:20;12.40;99.90
15364;DHT22;7781;49.690;6.472;2023-05-23T04:03:49;12.50;99.90
15364;DHT22;7781;49.690;6.472;2023-05-23T04:06:20;12.60;99.90
15364;DHT22;7781;49.690;6.472;2023-05-23T04:08:49;12.70;99.90
15364;DHT22;7781;49.690;6.472;2023-05-23T04:11:18;12.80;99.90
15364;DHT22;7781;49.690;6.472;2023-05-23T04:13:51;12.80;99.90
15364;DHT22;7781;49.690;6.472;2023-05-23T04:16:20;12.90;99.90
15364;DHT22;7781;49.690;6.472;2023-05-23T04:18:50;13.00;99.90
15364;DHT22;7781;49.690;6.472;2023-05-23T04:21:20;13.00;99.90
15364;DHT22;7781;49.690;6.472;2023-05-23T04:24:00;13.10;99.90
15364;DHT22;7781;49.690;6.472;2023-05-23T04:26:29;13.10;99.90
15364;DHT22;7781;49.690;6.472;2023-05-23T04:29:00;13.20;99.90
15364;DHT22;7781;49.690;6.472;2023-05-23T04:31:30;13.30;99.90
15364;DHT22;7781;49.690;6.472;2023-05-23T04:34:00;13.40;99.90
15364;DHT22;7781;49.690;6.472;2023-05-23T04:36:37;13.50;99.90
15364;DHT22;7781;49.690;6.472;2023-05-23T04:39:07;13.60;99.90
15364;DHT22;7781;49.690;6.472;2023-05-23T04:41:42;13.70;99.90
15364;DHT22;7781;49.690;6.472;2023-05-23T04:44:21;13.70;99.90
15364;DHT22;7781;49.690;6.472;2023-05-23T04:47:05;13.80;99.90
15364;DHT22;7781;49.690;6.472;2023-05-23T04:49:58;13.90;99.90
15364;DHT22;7781;49.690;6.472;2023-05-23T04:52:26;13.90;99.90
15364;DHT22;7781;49.690;6.472;2023-05-23T04:54:57;13.90;99.90
15364;DHT22;7781;49.690;6.472;2023-05-23T04:57:27;14.00;99.90
15364;DHT22;7781;49.690;6.472;2023-05-23T04:59:58;14.10;99.90
15364;DHT22;7781;49.690;6.472;2023-05-23T05:02:27;14.10;99.90
15364;DHT22;7781;49.690;6.472;2023-05-23T05:05:02;14.20;99.90
15364;DHT22;7781;49.690;6.472;2023-05-23T05:07:32;14.20;99.90
15364;DHT22;7781;49.690;6.472;2023-05-23T05:10:03;14.30;99.90
15364;DHT22;7781;49.690;6.472;2023-05-23T05:12:33;14.40;99.90
15364;DHT22;7781;49.690;6.472;2023-05-23T05:15:05;14.50;99.90
15364;DHT22;7781;49.690;6.472;2023-05-23T05:17:34;14.60;99.90
15364;DHT22;7781;49.690;6.472;2023-05-23T05:20:08;14.70;99.90
15364;DHT22;7781;49.690;6.472;2023-05-23T05:22:38;14.70;99.90
15364;DHT22;7781;49.690;6.472;2023-05-23T05:25:11;14.70;99.90
15364;DHT22;7781;49.690;6.472;2023-05-23T05:27:41;14.70;99.90
15364;DHT22;7781;49.690;6.472;2023-05-23T05:30:15;14.80;99.90
15364;DHT22;7781;49.690;6.472;2023-05-23T05:32:49;14.90;99.90
15364;DHT22;7781;49.690;6.472;2023-05-23T05:35:17;15.00;99.90
15364;DHT22;7781;49.690;6.472;2023-05-23T05:37:47;15.10;99.90
15364;DHT22;7781;49.690;6.472;2023-05-23T05:40:17;15.10;99.90
15364;DHT22;7781;49.690;6.472;2023-05-23T05:42:46;15.20;99.90
15364;DHT22;7781;49.690;6.472;2023-05-23T05:45:16;15.30;99.90
15364;DHT22;7781;49.690;6.472;2023-05-23T05:47:46;15.30;99.90
15364;DHT22;7781;49.690;6.472;2023-05-23T05:50:18;15.40;99.90
15364;DHT22;7781;49.690;6.472;2023-05-23T05:52:46;15.50;99.90
15364;DHT22;7781;49.690;6.472;2023-05-23T05:55:15;15.50;99.90
15364;DHT22;7781;49.690;6.472;2023-05-23T05:57:47;15.50;99.90
15364;DHT22;7781;49.690;6.472;2023-05-23T06:00:19;15.60;99.90
15364;DHT22;7781;49.690;6.472;2023-05-23T06:02:55;15.60;99.90
15364;DHT22;7781;49.690;6.472;2023-05-23T06:05:40;15.70;99.90
15364;DHT22;7781;49.690;6.472;2023-05-23T06:08:10;15.70;99.90
15364;DHT22;7781;49.690;6.472;2023-05-23T06:10:39;15.70;99.90
15364;DHT22;7781;49.690;6.472;2023-05-23T06:13:09;15.80;99.90
15364;DHT22;7781;49.690;6.472;2023-05-23T06:15:41;15.80;99.90
15364;DHT22;7781;49.690;6.472;2023-05-23T06:18:11;15.90;99.90
15364;DHT22;7781;49.690;6.472;2023-05-23T06:20:39;15.90;99.90
15364;DHT22;7781;49.690;6.472;2023-05-23T06:23:12;15.90;99.90
15364;DHT22;7781;49.690;6.472;2023-05-23T06:25:41;16.00;99.90
15364;DHT22;7781;49.690;6.472;2023-05-23T06:28:11;16.00;37.90
15364;DHT22;7781;49.690;6.472;2023-05-23T06:30:42;16.00;99.90
15364;DHT22;7781;49.690;6.472;2023-05-23T06:33:11;16.00;99.90
15364;DHT22;7781;49.690;6.472;2023-05-23T06:35:41;16.00;99.90
15364;DHT22;7781;49.690;6.472;2023-05-23T06:38:10;16.00;99.90
15364;DHT22;7781;49.690;6.472;2023-05-23T06:40:39;16.10;99.90
15364;DHT22;7781;49.690;6.472;2023-05-23T06:43:10;16.10;99.90
15364;DHT22;7781;49.690;6.472;2023-05-23T06:45:46;16.10;1.00
15364;DHT22;7781;49.690;6.472;2023-05-23T06:48:15;16.00;99.90
15364;DHT22;7781;49.690;6.472;2023-05-23T06:50:45;16.00;99.90
15364;DHT22;7781;49.690;6.472;2023-05-23T06:53:15;16.00;99.90
15364;DHT22;7781;49.690;6.472;2023-05-23T06:55:47;16.10;99.90
15364;DHT22;7781;49.690;6.472;2023-05-23T06:58:20;16.10;99.90
15364;DHT22;7781;49.690;6.472;2023-05-23T07:00:53;16.10;99.90
15364;DHT22;7781;49.690;6.472;2023-05-23T07:03:28;16.00;99.90
15364;DHT22;7781;49.690;6.472;2023-05-23T07:06:01;16.00;99.90
15364;DHT22;7781;49.690;6.472;2023-05-23T07:08:31;16.00;99.90
15364;DHT22;7781;49.690;6.472;2023-05-23T07:11:01;16.00;99.90
15364;DHT22;7781;49.690;6.472;2023-05-23T07:13:36;16.10;99.90
15364;DHT22;7781;49.690;6.472;2023-05-23T07:16:06;16.10;99.90
15364;DHT22;7781;49.690;6.472;2023-05-23T07:18:45;16.20;99.90
15364;DHT22;7781;49.690;6.472;2023-05-23T07:21:13;16.20;99.90
15364;DHT22;7781;49.690;6.472;2023-05-23T07:23:42;16.30;99.90
15364;DHT22;7781;49.690;6.472;2023-05-23T07:26:13;16.40;99.90
15364;DHT22;7781;49.690;6.472;2023-05-23T07:28:51;16.40;99.90
15364;DHT22;7781;49.690;6.472;2023-05-23T07:31:23;16.50;99.90
15364;DHT22;7781;49.690;6.472;2023-05-23T07:33:55;16.50;99.90
15364;DHT22;7781;49.690;6.472;2023-05-23T07:36:33;16.60;99.90
15364;DHT22;7781;49.690;6.472;2023-05-23T07:39:07;16.60;99.90
15364;DHT22;7781;49.690;6.472;2023-05-23T07:41:38;16.70;99.90
15364;DHT22;7781;49.690;6.472;2023-05-23T07:44:06;16.70;99.90
15364;DHT22;7781;49.690;6.472;2023-05-23T07:46:38;16.80;99.90
15364;DHT22;7781;49.690;6.472;2023-05-23T07:49:09;16.90;99.90
15364;DHT22;7781;49.690;6.472;2023-05-23T07:51:38;17.00;99.90
15364;DHT22;7781;49.690;6.472;2023-05-23T07:54:09;17.10;99.90
15364;DHT22;7781;49.690;6.472;2023-05-23T07:56:42;17.20;99.90
15364;DHT22;7781;49.690;6.472;2023-05-23T07:59:12;17.30;99.90
15364;DHT22;7781;49.690;6.472;2023-05-23T08:01:43;17.40;99.90
15364;DHT22;7781;49.690;6.472;2023-05-23T08:04:17;17.40;99.90
15364;DHT22;7781;49.690;6.472;2023-05-23T08:06:51;17.40;99.90
15364;DHT22;7781;49.690;6.472;2023-05-23T08:09:44;17.50;99.90
15364;DHT22;7781;49.690;6.472;2023-05-23T08:12:15;17.50;99.90
15364;DHT22;7781;49.690;6.472;2023-05-23T08:14:46;17.60;99.90
15364;DHT22;7781;49.690;6.472;2023-05-23T08:17:33;17.70;99.90
15364;DHT22;7781;49.690;6.472;2023-05-23T08:20:04;17.70;99.90
15364;DHT22;7781;49.690;6.472;2023-05-23T08:22:35;17.80;99.90
15364;DHT22;7781;49.690;6.472;2023-05-23T08:25:05;17.90;99.90
15364;DHT22;7781;49.690;6.472;2023-05-23T08:27:36;18.00;99.90
15364;DHT22;7781;49.690;6.472;2023-05-23T08:30:27;18.20;99.90
15364;DHT22;7781;49.690;6.472;2023-05-23T08:32:58;18.20;99.90
15364;DHT22;7781;49.690;6.472;2023-05-23T08:35:31;18.20;99.90
15364;DHT22;7781;49.690;6.472;2023-05-23T08:38:08;18.30;99.90
15364;DHT22;7781;49.690;6.472;2023-05-23T08:40:48;18.30;99.90
15364;DHT22;7781;49.690;6.472;2023-05-23T08:43:18;18.30;99.90
15364;DHT22;7781;49.690;6.472;2023-05-23T08:45:52;18.30;99.90
15364;DHT22;7781;49.690;6.472;2023-05-23T08:48:25;18.30;99.90
15364;DHT22;7781;49.690;6.472;2023-05-23T08:50:56;18.30;99.90
15364;DHT22;7781;49.690;6.472;2023-05-23T08:53:26;18.40;99.90
15364;DHT22;7781;49.690;6.472;2023-05-23T08:56:03;18.40;99.90
15364;DHT22;7781;49.690;6.472;2023-05-23T08:58:41;18.40;99.90
15364;DHT22;7781;49.690;6.472;2023-05-23T09:01:11;18.40;99.90
15364;DHT22;7781;49.690;6.472;2023-05-23T09:03:41;18.40;99.90
15364;DHT22;7781;49.690;6.472;2023-05-23T09:06:20;18.50;99.90
15364;DHT22;7781;49.690;6.472;2023-05-23T09:08:49;18.50;99.90
15364;DHT22;7781;49.690;6.472;2023-05-23T09:11:19;18.60;99.90
15364;DHT22;7781;49.690;6.472;2023-05-23T09:13:52;18.60;99.90
15364;DHT22;7781;49.690;6.472;2023-05-23T09:16:31;18.60;99.90
15364;DHT22;7781;49.690;6.472;2023-05-23T09:19:13;18.50;99.90
15364;DHT22;7781;49.690;6.472;2023-05-23T09:21:49;18.50;99.90
15364;DHT22;7781;49.690;6.472;2023-05-23T09:24:33;18.40;99.90
15364;DHT22;7781;49.690;6.472;2023-05-23T09:27:05;18.40;99.90
15364;DHT22;7781;49.690;6.472;2023-05-23T09:29:36;18.40;99.90
15364;DHT22;7781;49.690;6.472;2023-05-23T09:32:10;18.40;99.90
15364;DHT22;7781;49.690;6.472;2023-05-23T09:34:54;18.40;99.90
15364;DHT22;7781;49.690;6.472;2023-05-23T09:37:31;18.40;99.90
15364;DHT22;7781;49.690;6.472;2023-05-23T09:40:05;18.40;99.90
15364;DHT22;7781;49.690;6.472;2023-05-23T09:42:40;18.50;99.90
15364;DHT22;7781;49.690;6.472;2023-05-23T09:45:11;18.50;99.90
15364;DHT22;7781;49.690;6.472;2023-05-23T09:47:48;18.40;99.90
15364;DHT22;7781;49.690;6.472;2023-05-23T09:50:22;18.30;99.90
15364;DHT22;7781;49.690;6.472;2023-05-23T09:52:50;18.20;99.90
15364;DHT22;7781;49.690;6.472;2023-05-23T09:55:22;18.20;99.90
15364;DHT22;7781;49.690;6.472;2023-05-23T09:57:53;18.10;99.90
15364;DHT22;7781;49.690;6.472;2023-05-23T10:00:23;18.10;99.90
15364;DHT22;7781;49.690;6.472;2023-05-23T10:03:00;18.10;99.90
15364;DHT22;7781;49.690;6.472;2023-05-23T10:05:36;18.30;99.90
15364;DHT22;7781;49.690;6.472;2023-05-23T10:08:08;18.40;99.90
15364;DHT22;7781;49.690;6.472;2023-05-23T10:14:04;18.60;99.90
15364;DHT22;7781;49.690;6.472;2023-05-23T10:16:39;18.70;99.90
15364;DHT22;7781;49.690;6.472;2023-05-23T10:19:22;18.70;99.90
15364;DHT22;7781;49.690;6.472;2023-05-23T10:21:57;18.70;99.90
15364;DHT22;7781;49.690;6.472;2023-05-23T10:24:29;18.80;99.90
15364;DHT22;7781;49.690;6.472;2023-05-23T10:26:58;18.80;99.90
15364;DHT22;7781;49.690;6.472;2023-05-23T10:29:28;18.70;99.90
15364;DHT22;7781;49.690;6.472;2023-05-23T10:31:57;18.50;99.90
15364;DHT22;7781;49.690;6.472;2023-05-23T10:34:33;18.40;99.90
15364;DHT22;7781;49.690;6.472;2023-05-23T10:37:08;18.40;99.90
15364;DHT22;7781;49.690;6.472;2023-05-23T10:39:49;18.40;99.90
15364;DHT22;7781;49.690;6.472;2023-05-23T10:42:30;18.40;99.90
15364;DHT22;7781;49.690;6.472;2023-05-23T10:45:16;18.40;99.90
15364;DHT22;7781;49.690;6.472;2023-05-23T10:47:45;18.30;99.90
15364;DHT22;7781;49.690;6.472;2023-05-23T10:50:16;18.40;99.90
15364;DHT22;7781;49.690;6.472;2023-05-23T10:52:59;18.40;99.90
15364;DHT22;7781;49.690;6.472;2023-05-23T10:55:32;18.40;99.90
15364;DHT22;7781;49.690;6.472;2023-05-23T10:58:11;18.50;99.90
15364;DHT22;7781;49.690;6.472;2023-05-23T11:00:50;18.60;99.90
15364;DHT22;7781;49.690;6.472;2023-05-23T11:03:30;18.70;99.90
15364;DHT22;7781;49.690;6.472;2023-05-23T11:06:01;18.60;99.90
15364;DHT22;7781;49.690;6.472;2023-05-23T11:08:38;18.60;99.90
15364;DHT22;7781;49.690;6.472;2023-05-23T11:11:12;18.60;99.90
15364;DHT22;7781;49.690;6.472;2023-05-23T11:13:56;18.60;99.90
15364;DHT22;7781;49.690;6.472;2023-05-23T11:16:29;18.50;99.90
15364;DHT22;7781;49.690;6.472;2023-05-23T11:19:22;18.50;99.90
15364;DHT22;7781;49.690;6.472;2023-05-23T11:21:58;18.60;99.90
15364;DHT22;7781;49.690;6.472;2023-05-23T11:24:50;18.70;99.90
15364;DHT22;7781;49.690;6.472;2023-05-23T11:27:25;18.80;99.90
15364;DHT22;7781;49.690;6.472;2023-05-23T11:30:02;18.80;99.90
15364;DHT22;7781;49.690;6.472;2023-05-23T11:32:32;18.80;99.90
15364;DHT22;7781;49.690;6.472;2023-05-23T11:35:02;19.00;99.90
15364;DHT22;7781;49.690;6.472;2023-05-23T11:37:31;19.10;99.90
15364;DHT22;7781;49.690;6.472;2023-05-23T11:40:25;19.10;99.90
15364;DHT22;7781;49.690;6.472;2023-05-23T11:42:54;19.00;99.90
15364;DHT22;7781;49.690;6.472;2023-05-23T11:45:24;19.00;99.90
15364;DHT22;7781;49.690;6.472;2023-05-23T11:47:52;19.00;99.90
15364;DHT22;7781;49.690;6.472;2023-05-23T11:50:23;19.10;99.90
15364;DHT22;7781;49.690;6.472;2023-05-23T11:52:54;19.20;99.90
15364;DHT22;7781;49.690;6.472;2023-05-23T11:55:24;19.10;99.90
15364;DHT22;7781;49.690;6.472;2023-05-23T11:57:55;19.00;99.90
15364;DHT22;7781;49.690;6.472;2023-05-23T12:00:24;19.00;99.90
15364;DHT22;7781;49.690;6.472;2023-05-23T12:02:54;19.00;99.90
15364;DHT22;7781;49.690;6.472;2023-05-23T12:05:23;19.10;99.90
15364;DHT22;7781;49.690;6.472;2023-05-23T12:07:52;19.20;99.90
15364;DHT22;7781;49.690;6.472;2023-05-23T12:10:20;19.20;99.90
15364;DHT22;7781;49.690;6.472;2023-05-23T12:12:55;19.00;99.90
15364;DHT22;7781;49.690;6.472;2023-05-23T12:15:25;18.90;99.90
15364;DHT22;7781;49.690;6.472;2023-05-23T12:17:55;18.90;99.90
15364;DHT22;7781;49.690;6.472;2023-05-23T12:20:30;18.90;99.90
15364;DHT22;7781;49.690;6.472;2023-05-23T12:23:04;19.00;99.90
15364;DHT22;7781;49.690;6.472;2023-05-23T12:25:39;19.00;99.90
15364;DHT22;7781;49.690;6.472;2023-05-23T12:28:11;19.00;99.90
15364;DHT22;7781;49.690;6.472;2023-05-23T12:30:41;19.00;99.90
15364;DHT22;7781;49.690;6.472;2023-05-23T12:33:10;19.00;99.90
15364;DHT22;7781;49.690;6.472;2023-05-23T12:35:42;18.80;99.90
15364;DHT22;7781;49.690;6.472;2023-05-23T12:38:14;18.70;99.90
15364;DHT22;7781;49.690;6.472;2023-05-23T12:40:44;18.80;99.90
15364;DHT22;7781;49.690;6.472;2023-05-23T12:43:14;18.90;99.90
15364;DHT22;7781;49.690;6.472;2023-05-23T12:45:44;19.00;99.90
15364;DHT22;7781;49.690;6.472;2023-05-23T12:48:13;19.10;99.90
15364;DHT22;7781;49.690;6.472;2023-05-23T12:50:43;19.10;99.90
15364;DHT22;7781;49.690;6.472;2023-05-23T12:53:12;19.10;99.90
15364;DHT22;7781;49.690;6.472;2023-05-23T12:55:43;19.00;99.90
15364;DHT22;7781;49.690;6.472;2023-05-23T12:58:11;19.00;99.90
15364;DHT22;7781;49.690;6.472;2023-05-23T13:00:44;19.00;99.90
15364;DHT22;7781;49.690;6.472;2023-05-23T13:03:14;19.00;99.90
15364;DHT22;7781;49.690;6.472;2023-05-23T13:05:42;18.90;99.90
15364;DHT22;7781;49.690;6.472;2023-05-23T13:08:11;18.90;99.90
15364;DHT22;7781;49.690;6.472;2023-05-23T13:10:40;18.80;99.90
15364;DHT22;7781;49.690;6.472;2023-05-23T13:13:09;18.60;99.90
15364;DHT22;7781;49.690;6.472;2023-05-23T13:15:38;18.50;99.90
15364;DHT22;7781;49.690;6.472;2023-05-23T13:18:08;18.50;99.90
15364;DHT22;7781;49.690;6.472;2023-05-23T13:20:37;18.60;99.90
15364;DHT22;7781;49.690;6.472;2023-05-23T13:23:06;18.60;99.90
15364;DHT22;7781;49.690;6.472;2023-05-23T13:25:35;18.60;99.90
15364;DHT22;7781;49.690;6.472;2023-05-23T13:28:03;18.70;99.90
15364;DHT22;7781;49.690;6.472;2023-05-23T13:30:33;18.70;99.90
15364;DHT22;7781;49.690;6.472;2023-05-23T13:33:02;18.80;99.90
15364;DHT22;7781;49.690;6.472;2023-05-23T13:35:33;18.90;99.90
15364;DHT22;7781;49.690;6.472;2023-05-23T13:38:02;19.10;99.90
15364;DHT22;7781;49.690;6.472;2023-05-23T13:40:32;19.30;99.90
15364;DHT22;7781;49.690;6.472;2023-05-23T13:43:02;19.30;99.90
15364;DHT22;7781;49.690;6.472;2023-05-23T13:45:31;19.40;99.90
15364;DHT22;7781;49.690;6.472;2023-05-23T13:48:02;19.40;99.90
15364;DHT22;7781;49.690;6.472;2023-05-23T13:50:32;19.30;99.90
15364;DHT22;7781;49.690;6.472;2023-05-23T13:53:01;19.30;99.90
15364;DHT22;7781;49.690;6.472;2023-05-23T13:55:38;19.30;99.90
15364;DHT22;7781;49.690;6.472;2023-05-23T13:58:07;19.20;99.90
15364;DHT22;7781;49.690;6.472;2023-05-23T14:00:36;19.30;99.90
15364;DHT22;7781;49.690;6.472;2023-05-23T14:03:06;19.30;99.90
15364;DHT22;7781;49.690;6.472;2023-05-23T14:05:36;19.20;99.90
15364;DHT22;7781;49.690;6.472;2023-05-23T14:08:05;19.20;99.90
15364;DHT22;7781;49.690;6.472;2023-05-23T14:10:34;19.20;99.90
15364;DHT22;7781;49.690;6.472;2023-05-23T14:13:05;19.00;99.90
15364;DHT22;7781;49.690;6.472;2023-05-23T14:15:36;18.90;99.90
15364;DHT22;7781;49.690;6.472;2023-05-23T14:18:06;18.80;99.90
15364;DHT22;7781;49.690;6.472;2023-05-23T14:20:36;18.80;99.90
15364;DHT22;7781;49.690;6.472;2023-05-23T14:23:05;18.80;99.90
15364;DHT22;7781;49.690;6.472;2023-05-23T14:25:34;19.00;99.90
15364;DHT22;7781;49.690;6.472;2023-05-23T14:28:06;19.00;99.90
15364;DHT22;7781;49.690;6.472;2023-05-23T14:30:35;19.10;99.90
15364;DHT22;7781;49.690;6.472;2023-05-23T14:33:03;19.20;99.90
15364;DHT22;7781;49.690;6.472;2023-05-23T14:35:38;19.30;99.90
15364;DHT22;7781;49.690;6.472;2023-05-23T14:38:10;19.30;99.90
15364;DHT22;7781;49.690;6.472;2023-05-23T14:40:39;19.20;99.90
15364;DHT22;7781;49.690;6.472;2023-05-23T14:43:10;19.20;99.90
15364;DHT22;7781;49.690;6.472;2023-05-23T14:45:40;19.10;99.90
15364;DHT22;7781;49.690;6.472;2023-05-23T14:48:10;19.00;99.90
15364;DHT22;7781;49.690;6.472;2023-05-23T14:50:41;19.00;99.90
15364;DHT22;7781;49.690;6.472;2023-05-23T14:53:13;18.90;99.90
15364;DHT22;7781;49.690;6.472;2023-05-23T14:55:41;18.90;99.90
15364;DHT22;7781;49.690;6.472;2023-05-23T14:58:10;18.90;99.90
15364;DHT22;7781;49.690;6.472;2023-05-23T15:00:39;18.90;99.90
15364;DHT22;7781;49.690;6.472;2023-05-23T15:03:09;18.80;99.90
15364;DHT22;7781;49.690;6.472;2023-05-23T15:05:37;18.80;99.90
15364;DHT22;7781;49.690;6.472;2023-05-23T15:08:08;18.80;99.90
15364;DHT22;7781;49.690;6.472;2023-05-23T15:10:41;18.70;99.90
15364;DHT22;7781;49.690;6.472;2023-05-23T15:13:14;18.70;99.90
15364;DHT22;7781;49.690;6.472;2023-05-23T15:15:43;18.80;99.90
15364;DHT22;7781;49.690;6.472;2023-05-23T15:18:12;18.70;99.90
15364;DHT22;7781;49.690;6.472;2023-05-23T15:21:02;18.70;99.90
15364;DHT22;7781;49.690;6.472;2023-05-23T15:23:33;18.60;99.90
15364;DHT22;7781;49.690;6.472;2023-05-23T15:26:02;18.60;99.90
15364;DHT22;7781;49.690;6.472;2023-05-23T15:28:31;18.60;99.90
15364;DHT22;7781;49.690;6.472;2023-05-23T15:31:01;18.60;99.90
15364;DHT22;7781;49.690;6.472;2023-05-23T15:33:29;18.60;99.90
15364;DHT22;7781;49.690;6.472;2023-05-23T15:35:58;18.50;99.90
15364;DHT22;7781;49.690;6.472;2023-05-23T15:38:27;18.50;99.90
15364;DHT22;7781;49.690;6.472;2023-05-23T15:40:57;18.50;99.90
15364;DHT22;7781;49.690;6.472;2023-05-23T15:43:26;18.50;99.90
15364;DHT22;7781;49.690;6.472;2023-05-23T15:45:58;18.40;99.90
15364;DHT22;7781;49.690;6.472;2023-05-23T15:48:30;18.40;99.90
15364;DHT22;7781;49.690;6.472;2023-05-23T15:50:59;18.30;99.90
15364;DHT22;7781;49.690;6.472;2023-05-23T15:53:30;18.40;99.90
15364;DHT22;7781;49.690;6.472;2023-05-23T15:56:15;18.40;99.90
15364;DHT22;7781;49.690;6.472;2023-05-23T15:58:44;18.30;99.90
15364;DHT22;7781;49.690;6.472;2023-05-23T16:01:13;18.30;99.90
15364;DHT22;7781;49.690;6.472;2023-05-23T16:03:42;18.30;99.90
15364;DHT22;7781;49.690;6.472;2023-05-23T16:06:12;18.30;99.90
15364;DHT22;7781;49.690;6.472;2023-05-23T16:08:40;18.40;99.90
15364;DHT22;7781;49.690;6.472;2023-05-23T16:11:10;18.40;99.90
15364;DHT22;7781;49.690;6.472;2023-05-23T16:13:40;18.30;99.90
15364;DHT22;7781;49.690;6.472;2023-05-23T16:16:12;18.30;99.90
15364;DHT22;7781;49.690;6.472;2023-05-23T16:19:23;18.30;99.90